sensor_id;sensor_type;location;lat;lon;timestamp;temperature;humidity
13796;SHT30;40911;51.552;9.874;2023-04-29T00:02:07;12.25;97.50
13796;SHT30;40911;51.552;9.874;2023-04-29T00:04:28;12.27;97.43
13796;SHT30;40911;51.552;9.874;2023-04-29T00:06:50;12.27;97.28
13796;SHT30;40911;51.552;9.874;2023-04-29T00:09:12;12.26;97.73
13796;SHT30;40911;51.552;9.874;2023-04-29T00:11:35;12.26;97.43
13796;SHT30;40911;51.552;9.874;2023-04-29T00:13:56;12.27;97.17
13796;SHT30;40911;51.552;9.874;2023-04-29T00:16:18;12.29;97.03
13796;SHT30;40911;51.552;9.874;2023-04-29T00:18:39;12.32;96.55
13796;SHT30;40911;51.552;9.874;2023-04-29T00:21:02;12.27;97.30
13796;SHT30;40911;51.552;9.874;2023-04-29T00:23:25;12.29;97.39
13796;SHT30;40911;51.552;9.874;2023-04-29T00:25:46;12.32;97.14
13796;SHT30;40911;51.552;9.874;2023-04-29T00:28:09;12.32;97.03
13796;SHT30;40911;51.552;9.874;2023-04-29T00:30:31;12.32;96.66
13796;SHT30;40911;51.552;9.874;2023-04-29T00:32:54;12.30;97.39
13796;SHT30;40911;51.552;9.874;2023-04-29T00:35:15;12.30;97.22
13796;SHT30;40911;51.552;9.874;2023-04-29T00:37:37;12.32;96.79
13796;SHT30;40911;51.552;9.874;2023-04-29T00:39:58;12.27;97.31
13796;SHT30;40911;51.552;9.874;2023-04-29T00:42:20;12.23;97.33
13796;SHT30;40911;51.552;9.874;2023-04-29T00:44:43;12.23;97.66
13796;SHT30;40911;51.552;9.874;2023-04-29T00:47:05;12.26;97.59
13796;SHT30;40911;51.552;9.874;2023-04-29T00:49:30;12.26;97.25
13796;SHT30;40911;51.552;9.874;2023-04-29T00:51:52;12.22;97.47
13796;SHT30;40911;51.552;9.874;2023-04-29T00:54:14;12.27;97.15
13796;SHT30;40911;51.552;9.874;2023-04-29T00:56:37;12.23;97.18
13796;SHT30;40911;51.552;9.874;2023-04-29T00:59:01;12.23;97.10
13796;SHT30;40911;51.552;9.874;2023-04-29T01:01:25;12.20;97.29
13796;SHT30;40911;51.552;9.874;2023-04-29T01:03:47;12.19;97.11
13796;SHT30;40911;51.552;9.874;2023-04-29T01:06:19;12.17;97.16
13796;SHT30;40911;51.552;9.874;2023-04-29T01:08:51;12.19;96.98
13796;SHT30;40911;51.552;9.874;2023-04-29T01:11:22;12.20;96.92
13796;SHT30;40911;51.552;9.874;2023-04-29T01:13:49;12.26;96.93
13796;SHT30;40911;51.552;9.874;2023-04-29T01:16:16;12.23;96.77
13796;SHT30;40911;51.552;9.874;2023-04-29T01:18:45;12.19;96.84
13796;SHT30;40911;51.552;9.874;2023-04-29T01:21:10;12.19;96.75
13796;SHT30;40911;51.552;9.874;2023-04-29T01:23:33;12.16;96.71
13796;SHT30;40911;51.552;9.874;2023-04-29T01:25:55;12.15;96.66
13796;SHT30;40911;51.552;9.874;2023-04-29T01:28:29;12.10;96.64
13796;SHT30;40911;51.552;9.874;2023-04-29T01:30:57;12.09;96.73
13796;SHT30;40911;51.552;9.874;2023-04-29T01:33:27;12.05;96.70
13796;SHT30;40911;51.552;9.874;2023-04-29T01:35:59;12.08;96.58
13796;SHT30;40911;51.552;9.874;2023-04-29T01:38:31;12.05;96.54
13796;SHT30;40911;51.552;9.874;2023-04-29T01:41:01;12.06;96.43
13796;SHT30;40911;51.552;9.874;2023-04-29T01:43:29;12.02;96.59
13796;SHT30;40911;51.552;9.874;2023-04-29T01:45:54;12.03;96.62
13796;SHT30;40911;51.552;9.874;2023-04-29T01:48:17;12.06;96.33
13796;SHT30;40911;51.552;9.874;2023-04-29T01:50:39;12.08;96.36
13796;SHT30;40911;51.552;9.874;2023-04-29T01:53:00;12.02;96.23
13796;SHT30;40911;51.552;9.874;2023-04-29T01:55:22;12.00;96.26
13796;SHT30;40911;51.552;9.874;2023-04-29T01:57:46;11.99;95.97
13796;SHT30;40911;51.552;9.874;2023-04-29T02:00:08;11.99;96.03
13796;SHT30;40911;51.552;9.874;2023-04-29T02:02:30;12.00;95.83
13796;SHT30;40911;51.552;9.874;2023-04-29T02:04:52;12.00;95.79
13796;SHT30;40911;51.552;9.874;2023-04-29T02:07:14;12.00;95.92
13796;SHT30;40911;51.552;9.874;2023-04-29T02:09:35;12.00;95.88
13796;SHT30;40911;51.552;9.874;2023-04-29T02:11:57;11.98;96.13
13796;SHT30;40911;51.552;9.874;2023-04-29T02:14:20;11.98;95.98
13796;SHT30;40911;51.552;9.874;2023-04-29T02:16:43;11.95;96.02
13796;SHT30;40911;51.552;9.874;2023-04-29T02:19:04;11.95;95.97
13796;SHT30;40911;51.552;9.874;2023-04-29T02:21:26;11.92;95.80
13796;SHT30;40911;51.552;9.874;2023-04-29T02:23:47;11.93;95.82
13796;SHT30;40911;51.552;9.874;2023-04-29T02:26:09;11.93;95.73
13796;SHT30;40911;51.552;9.874;2023-04-29T02:28:31;11.95;95.55
13796;SHT30;40911;51.552;9.874;2023-04-29T02:30:54;11.89;95.93
13796;SHT30;40911;51.552;9.874;2023-04-29T02:33:16;11.90;95.69
13796;SHT30;40911;51.552;9.874;2023-04-29T02:35:37;11.88;95.75
13796;SHT30;40911;51.552;9.874;2023-04-29T02:37:59;11.86;95.69
13796;SHT30;40911;51.552;9.874;2023-04-29T02:40:21;11.89;95.57
13796;SHT30;40911;51.552;9.874;2023-04-29T02:42:44;11.86;95.49
13796;SHT30;40911;51.552;9.874;2023-04-29T02:45:07;11.85;95.81
13796;SHT30;40911;51.552;9.874;2023-04-29T02:47:30;11.79;95.89
13796;SHT30;40911;51.552;9.874;2023-04-29T02:49:52;11.79;95.73
13796;SHT30;40911;51.552;9.874;2023-04-29T02:52:14;11.82;95.62
13796;SHT30;40911;51.552;9.874;2023-04-29T02:54:36;11.83;95.65
13796;SHT30;40911;51.552;9.874;2023-04-29T02:56:57;11.82;95.70
13796;SHT30;40911;51.552;9.874;2023-04-29T02:59:19;11.82;95.36
13796;SHT30;40911;51.552;9.874;2023-04-29T03:01:41;11.82;95.38
13796;SHT30;40911;51.552;9.874;2023-04-29T03:04:04;11.83;95.37
13796;SHT30;40911;51.552;9.874;2023-04-29T03:06:26;11.82;95.49
13796;SHT30;40911;51.552;9.874;2023-04-29T03:08:48;11.82;95.54
13796;SHT30;40911;51.552;9.874;2023-04-29T03:11:09;11.81;95.55
13796;SHT30;40911;51.552;9.874;2023-04-29T03:13:31;11.77;95.40
13796;SHT30;40911;51.552;9.874;2023-04-29T03:15:53;11.71;95.58
13796;SHT30;40911;51.552;9.874;2023-04-29T03:18:17;11.71;95.99
13796;SHT30;40911;51.552;9.874;2023-04-29T03:20:39;11.57;95.40
13796;SHT30;40911;51.552;9.874;2023-04-29T03:23:01;11.58;95.50
13796;SHT30;40911;51.552;9.874;2023-04-29T03:25:23;11.60;95.49
13796;SHT30;40911;51.552;9.874;2023-04-29T03:27:44;11.55;95.62
13796;SHT30;40911;51.552;9.874;2023-04-29T03:30:07;11.57;95.54
13796;SHT30;40911;51.552;9.874;2023-04-29T03:32:29;11.51;95.56
13796;SHT30;40911;51.552;9.874;2023-04-29T03:34:50;11.55;95.67
13796;SHT30;40911;51.552;9.874;2023-04-29T03:37:13;11.52;95.66
13796;SHT30;40911;51.552;9.874;2023-04-29T03:39:35;11.50;95.82
13796;SHT30;40911;51.552;9.874;2023-04-29T03:41:57;11.43;96.12
13796;SHT30;40911;51.552;9.874;2023-04-29T03:44:19;11.40;96.08
13796;SHT30;40911;51.552;9.874;2023-04-29T03:46:41;11.40;95.77
13796;SHT30;40911;51.552;9.874;2023-04-29T03:49:02;11.40;95.73
13796;SHT30;40911;51.552;9.874;2023-04-29T03:51:24;11.30;95.54
13796;SHT30;40911;51.552;9.874;2023-04-29T03:53:47;11.28;95.88
13796;SHT30;40911;51.552;9.874;2023-04-29T03:56:09;11.22;95.65
13796;SHT30;40911;51.552;9.874;2023-04-29T03:58:31;11.14;95.67
13796;SHT30;40911;51.552;9.874;2023-04-29T04:00:53;11.20;95.57
13796;SHT30;40911;51.552;9.874;2023-04-29T04:03:15;11.17;95.44
13796;SHT30;40911;51.552;9.874;2023-04-29T04:05:37;11.19;95.52
13796;SHT30;40911;51.552;9.874;2023-04-29T04:07:58;11.12;95.87
13796;SHT30;40911;51.552;9.874;2023-04-29T04:10:22;11.13;95.77
13796;SHT30;40911;51.552;9.874;2023-04-29T04:12:43;11.12;95.53
13796;SHT30;40911;51.552;9.874;2023-04-29T04:15:07;11.12;95.79
13796;SHT30;40911;51.552;9.874;2023-04-29T04:17:29;11.10;95.68
13796;SHT30;40911;51.552;9.874;2023-04-29T04:19:50;11.13;95.68
13796;SHT30;40911;51.552;9.874;2023-04-29T04:22:12;11.13;95.64
13796;SHT30;40911;51.552;9.874;2023-04-29T04:24:33;11.10;95.82
13796;SHT30;40911;51.552;9.874;2023-04-29T04:26:56;11.09;95.81
13796;SHT30;40911;51.552;9.874;2023-04-29T04:29:18;11.12;95.82
13796;SHT30;40911;51.552;9.874;2023-04-29T04:31:39;11.10;95.98
13796;SHT30;40911;51.552;9.874;2023-04-29T04:34:01;11.16;95.80
13796;SHT30;40911;51.552;9.874;2023-04-29T04:36:23;11.09;96.06
13796;SHT30;40911;51.552;9.874;2023-04-29T04:38:45;11.12;95.86
13796;SHT30;40911;51.552;9.874;2023-04-29T04:41:06;11.13;95.91
13796;SHT30;40911;51.552;9.874;2023-04-29T04:43:29;11.10;95.87
13796;SHT30;40911;51.552;9.874;2023-04-29T04:45:51;11.09;95.80
13796;SHT30;40911;51.552;9.874;2023-04-29T04:48:12;11.13;95.74
13796;SHT30;40911;51.552;9.874;2023-04-29T04:50:34;11.04;95.67
13796;SHT30;40911;51.552;9.874;2023-04-29T04:52:56;11.04;95.70
13796;SHT30;40911;51.552;9.874;2023-04-29T04:55:17;11.06;95.66
13796;SHT30;40911;51.552;9.874;2023-04-29T04:57:39;11.06;95.53
13796;SHT30;40911;51.552;9.874;2023-04-29T05:00:02;11.00;95.32
13796;SHT30;40911;51.552;9.874;2023-04-29T05:02:24;11.03;95.30
13796;SHT30;40911;51.552;9.874;2023-04-29T05:04:46;11.04;95.19
13796;SHT30;40911;51.552;9.874;2023-04-29T05:07:07;11.07;95.18
13796;SHT30;40911;51.552;9.874;2023-04-29T05:09:29;11.12;95.29
13796;SHT30;40911;51.552;9.874;2023-04-29T05:11:51;11.09;95.16
13796;SHT30;40911;51.552;9.874;2023-04-29T05:14:13;11.02;94.88
13796;SHT30;40911;51.552;9.874;2023-04-29T05:16:36;11.02;95.11
13796;SHT30;40911;51.552;9.874;2023-04-29T05:18:57;11.07;95.15
13796;SHT30;40911;51.552;9.874;2023-04-29T05:21:19;11.13;94.95
13796;SHT30;40911;51.552;9.874;2023-04-29T05:23:40;11.06;94.98
13796;SHT30;40911;51.552;9.874;2023-04-29T05:26:02;11.04;94.92
13796;SHT30;40911;51.552;9.874;2023-04-29T05:28:24;11.03;94.92
13796;SHT30;40911;51.552;9.874;2023-04-29T05:30:45;11.04;94.89
13796;SHT30;40911;51.552;9.874;2023-04-29T05:33:09;11.00;95.04
13796;SHT30;40911;51.552;9.874;2023-04-29T05:35:30;11.04;94.90
13796;SHT30;40911;51.552;9.874;2023-04-29T05:37:52;11.04;94.70
13796;SHT30;40911;51.552;9.874;2023-04-29T05:40:13;11.02;94.59
13796;SHT30;40911;51.552;9.874;2023-04-29T05:42:35;11.03;94.45
13796;SHT30;40911;51.552;9.874;2023-04-29T05:44:56;11.06;94.63
13796;SHT30;40911;51.552;9.874;2023-04-29T05:47:18;11.10;94.69
13796;SHT30;40911;51.552;9.874;2023-04-29T05:49:41;11.14;94.60
13796;SHT30;40911;51.552;9.874;2023-04-29T05:52:03;11.07;94.67
13796;SHT30;40911;51.552;9.874;2023-04-29T05:54:25;11.03;94.76
13796;SHT30;40911;51.552;9.874;2023-04-29T05:56:47;11.03;94.97
13796;SHT30;40911;51.552;9.874;2023-04-29T05:59:09;10.99;95.11
13796;SHT30;40911;51.552;9.874;2023-04-29T06:01:30;10.95;95.44
13796;SHT30;40911;51.552;9.874;2023-04-29T06:03:52;11.03;95.39
13796;SHT30;40911;51.552;9.874;2023-04-29T06:06:15;10.97;95.55
13796;SHT30;40911;51.552;9.874;2023-04-29T06:08:37;10.96;95.76
13796;SHT30;40911;51.552;9.874;2023-04-29T06:10:58;11.02;95.73
13796;SHT30;40911;51.552;9.874;2023-04-29T06:13:22;10.97;95.69
13796;SHT30;40911;51.552;9.874;2023-04-29T06:15:44;10.93;95.62
13796;SHT30;40911;51.552;9.874;2023-04-29T06:18:05;11.03;95.74
13796;SHT30;40911;51.552;9.874;2023-04-29T06:20:27;11.10;95.60
13796;SHT30;40911;51.552;9.874;2023-04-29T06:22:50;11.00;95.50
13796;SHT30;40911;51.552;9.874;2023-04-29T06:25:11;11.04;95.47
13796;SHT30;40911;51.552;9.874;2023-04-29T06:27:34;11.14;95.29
13796;SHT30;40911;51.552;9.874;2023-04-29T06:29:55;11.14;95.03
13796;SHT30;40911;51.552;9.874;2023-04-29T06:32:17;11.16;94.96
13796;SHT30;40911;51.552;9.874;2023-04-29T06:34:39;11.24;95.05
13796;SHT30;40911;51.552;9.874;2023-04-29T06:37:00;11.23;94.76
13796;SHT30;40911;51.552;9.874;2023-04-29T06:39:23;11.16;94.41
13796;SHT30;40911;51.552;9.874;2023-04-29T06:41:45;11.22;94.23
13796;SHT30;40911;51.552;9.874;2023-04-29T06:44:06;11.24;94.64
13796;SHT30;40911;51.552;9.874;2023-04-29T06:46:28;11.23;94.38
13796;SHT30;40911;51.552;9.874;2023-04-29T06:48:50;11.28;94.30
13796;SHT30;40911;51.552;9.874;2023-04-29T06:51:11;11.31;94.25
13796;SHT30;40911;51.552;9.874;2023-04-29T06:53:33;11.34;94.49
13796;SHT30;40911;51.552;9.874;2023-04-29T06:55:56;11.36;94.23
13796;SHT30;40911;51.552;9.874;2023-04-29T06:58:18;11.31;94.51
13796;SHT30;40911;51.552;9.874;2023-04-29T07:00:42;11.36;94.47
13796;SHT30;40911;51.552;9.874;2023-04-29T07:03:04;11.34;94.04
13796;SHT30;40911;51.552;9.874;2023-04-29T07:05:26;11.34;93.55
13796;SHT30;40911;51.552;9.874;2023-04-29T07:07:48;11.30;93.80
13796;SHT30;40911;51.552;9.874;2023-04-29T07:10:10;11.37;93.60
13796;SHT30;40911;51.552;9.874;2023-04-29T07:12:33;11.33;93.36
13796;SHT30;40911;51.552;9.874;2023-04-29T07:14:54;11.34;93.40
13796;SHT30;40911;51.552;9.874;2023-04-29T07:17:17;11.39;93.48
13796;SHT30;40911;51.552;9.874;2023-04-29T07:19:38;11.43;93.54
13796;SHT30;40911;51.552;9.874;2023-04-29T07:22:00;11.48;92.95
13796;SHT30;40911;51.552;9.874;2023-04-29T07:24:21;11.57;92.93
13796;SHT30;40911;51.552;9.874;2023-04-29T07:26:43;11.50;92.63
13796;SHT30;40911;51.552;9.874;2023-04-29T07:29:06;11.48;92.50
13796;SHT30;40911;51.552;9.874;2023-04-29T07:31:28;11.50;92.41
13796;SHT30;40911;51.552;9.874;2023-04-29T07:33:49;11.48;92.26
13796;SHT30;40911;51.552;9.874;2023-04-29T07:36:11;11.47;92.10
13796;SHT30;40911;51.552;9.874;2023-04-29T07:38:32;11.34;91.56
13796;SHT30;40911;51.552;9.874;2023-04-29T07:40:56;11.40;91.75
13796;SHT30;40911;51.552;9.874;2023-04-29T07:43:17;11.39;91.95
13796;SHT30;40911;51.552;9.874;2023-04-29T07:45:40;11.41;92.05
13796;SHT30;40911;51.552;9.874;2023-04-29T07:48:02;11.43;92.10
13796;SHT30;40911;51.552;9.874;2023-04-29T07:50:24;11.43;91.43
13796;SHT30;40911;51.552;9.874;2023-04-29T07:52:45;11.52;91.18
13796;SHT30;40911;51.552;9.874;2023-04-29T07:55:07;11.50;90.32
13796;SHT30;40911;51.552;9.874;2023-04-29T07:57:29;11.65;90.87
13796;SHT30;40911;51.552;9.874;2023-04-29T07:59:52;11.77;90.54
13796;SHT30;40911;51.552;9.874;2023-04-29T08:02:15;11.86;90.21
13796;SHT30;40911;51.552;9.874;2023-04-29T08:04:38;11.92;90.13
13796;SHT30;40911;51.552;9.874;2023-04-29T08:06:59;12.06;89.60
13796;SHT30;40911;51.552;9.874;2023-04-29T08:09:24;12.16;89.32
13796;SHT30;40911;51.552;9.874;2023-04-29T08:11:46;12.19;88.91
13796;SHT30;40911;51.552;9.874;2023-04-29T08:14:07;12.29;89.44
13796;SHT30;40911;51.552;9.874;2023-04-29T08:16:29;12.34;89.09
13796;SHT30;40911;51.552;9.874;2023-04-29T08:18:52;12.25;88.98
13796;SHT30;40911;51.552;9.874;2023-04-29T08:21:13;12.10;88.06
13796;SHT30;40911;51.552;9.874;2023-04-29T08:23:35;12.23;88.26
13796;SHT30;40911;51.552;9.874;2023-04-29T08:25:56;11.99;87.67
13796;SHT30;40911;51.552;9.874;2023-04-29T08:28:18;11.92;88.05
13796;SHT30;40911;51.552;9.874;2023-04-29T08:30:40;12.02;88.26
13796;SHT30;40911;51.552;9.874;2023-04-29T08:33:01;12.06;88.48
13796;SHT30;40911;51.552;9.874;2023-04-29T08:35:24;11.99;88.97
13796;SHT30;40911;51.552;9.874;2023-04-29T08:37:46;11.96;88.66
13796;SHT30;40911;51.552;9.874;2023-04-29T08:40:08;12.05;88.78
13796;SHT30;40911;51.552;9.874;2023-04-29T08:42:32;12.02;88.45
13796;SHT30;40911;51.552;9.874;2023-04-29T08:44:54;12.06;88.10
13796;SHT30;40911;51.552;9.874;2023-04-29T08:47:16;12.17;87.88
13796;SHT30;40911;51.552;9.874;2023-04-29T08:49:38;12.15;88.28
13796;SHT30;40911;51.552;9.874;2023-04-29T08:52:02;12.17;88.06
13796;SHT30;40911;51.552;9.874;2023-04-29T08:54:24;12.26;87.98
13796;SHT30;40911;51.552;9.874;2023-04-29T08:56:47;12.19;87.92
13796;SHT30;40911;51.552;9.874;2023-04-29T08:59:10;12.19;87.73
13796;SHT30;40911;51.552;9.874;2023-04-29T09:01:35;12.15;87.98
13796;SHT30;40911;51.552;9.874;2023-04-29T09:04:06;11.98;87.90
13796;SHT30;40911;51.552;9.874;2023-04-29T09:06:29;11.90;88.30
13796;SHT30;40911;51.552;9.874;2023-04-29T09:08:53;11.83;87.74
13796;SHT30;40911;51.552;9.874;2023-04-29T09:11:15;11.82;87.98
13796;SHT30;40911;51.552;9.874;2023-04-29T09:13:37;11.78;88.18
13796;SHT30;40911;51.552;9.874;2023-04-29T09:15:58;11.82;87.99
13796;SHT30;40911;51.552;9.874;2023-04-29T09:18:42;11.81;88.01
13796;SHT30;40911;51.552;9.874;2023-04-29T09:21:12;11.81;88.56
13796;SHT30;40911;51.552;9.874;2023-04-29T09:23:36;11.77;88.96
13796;SHT30;40911;51.552;9.874;2023-04-29T09:25:59;11.72;88.60
13796;SHT30;40911;51.552;9.874;2023-04-29T09:28:20;11.72;88.43
13796;SHT30;40911;51.552;9.874;2023-04-29T09:30:45;11.99;88.59
13796;SHT30;40911;51.552;9.874;2023-04-29T09:33:08;12.08;87.91
13796;SHT30;40911;51.552;9.874;2023-04-29T09:35:30;12.37;87.22
13796;SHT30;40911;51.552;9.874;2023-04-29T09:37:52;12.69;86.98
13796;SHT30;40911;51.552;9.874;2023-04-29T09:40:26;12.89;85.88
13796;SHT30;40911;51.552;9.874;2023-04-29T09:42:51;13.34;85.44
13796;SHT30;40911;51.552;9.874;2023-04-29T09:45:31;13.55;85.75
13796;SHT30;40911;51.552;9.874;2023-04-29T09:48:00;13.15;84.35
13796;SHT30;40911;51.552;9.874;2023-04-29T09:50:22;12.95;84.75
13796;SHT30;40911;51.552;9.874;2023-04-29T09:52:44;13.27;83.86
13796;SHT30;40911;51.552;9.874;2023-04-29T09:55:06;13.51;83.55
13796;SHT30;40911;51.552;9.874;2023-04-29T09:57:38;13.47;83.61
13796;SHT30;40911;51.552;9.874;2023-04-29T10:00:01;13.32;83.68
13796;SHT30;40911;51.552;9.874;2023-04-29T10:02:23;13.37;83.94
13796;SHT30;40911;51.552;9.874;2023-04-29T10:04:46;13.27;84.31
13796;SHT30;40911;51.552;9.874;2023-04-29T10:07:12;13.05;84.07
13796;SHT30;40911;51.552;9.874;2023-04-29T10:09:36;12.95;83.84
13796;SHT30;40911;51.552;9.874;2023-04-29T10:11:59;12.88;83.54
13796;SHT30;40911;51.552;9.874;2023-04-29T10:14:23;12.93;83.94
13796;SHT30;40911;51.552;9.874;2023-04-29T10:16:49;12.67;84.38
13796;SHT30;40911;51.552;9.874;2023-04-29T10:19:18;12.76;84.28
13796;SHT30;40911;51.552;9.874;2023-04-29T10:21:47;12.75;84.09
13796;SHT30;40911;51.552;9.874;2023-04-29T10:24:10;12.65;84.09
13796;SHT30;40911;51.552;9.874;2023-04-29T10:26:36;12.60;84.11
13796;SHT30;40911;51.552;9.874;2023-04-29T10:28:59;12.63;84.53
13796;SHT30;40911;51.552;9.874;2023-04-29T10:31:21;12.89;84.27
13796;SHT30;40911;51.552;9.874;2023-04-29T10:33:47;13.06;83.46
13796;SHT30;40911;51.552;9.874;2023-04-29T10:36:09;13.32;83.02
13796;SHT30;40911;51.552;9.874;2023-04-29T10:38:35;13.65;81.74
13796;SHT30;40911;51.552;9.874;2023-04-29T10:41:02;14.39;80.97
13796;SHT30;40911;51.552;9.874;2023-04-29T10:43:24;14.33;79.70
13796;SHT30;40911;51.552;9.874;2023-04-29T10:45:46;13.84;80.68
13796;SHT30;40911;51.552;9.874;2023-04-29T10:48:12;13.78;81.23
13796;SHT30;40911;51.552;9.874;2023-04-29T10:50:58;13.58;81.78
13796;SHT30;40911;51.552;9.874;2023-04-29T10:53:20;13.51;81.47
13796;SHT30;40911;51.552;9.874;2023-04-29T10:55:42;13.37;81.29
13796;SHT30;40911;51.552;9.874;2023-04-29T10:58:33;13.39;80.82
13796;SHT30;40911;51.552;9.874;2023-04-29T11:00:54;13.34;80.75
13796;SHT30;40911;51.552;9.874;2023-04-29T11:03:52;13.19;81.35
13796;SHT30;40911;51.552;9.874;2023-04-29T11:06:19;13.60;80.77
13796;SHT30;40911;51.552;9.874;2023-04-29T11:08:40;13.77;81.06
13796;SHT30;40911;51.552;9.874;2023-04-29T11:11:03;13.77;80.39
13796;SHT30;40911;51.552;9.874;2023-04-29T11:13:28;13.92;80.01
13796;SHT30;40911;51.552;9.874;2023-04-29T11:15:50;13.91;79.88
13796;SHT30;40911;51.552;9.874;2023-04-29T11:18:12;13.47;78.63
13796;SHT30;40911;51.552;9.874;2023-04-29T11:23:30;13.23;79.76
13796;SHT30;40911;51.552;9.874;2023-04-29T11:25:54;13.19;80.04
13796;SHT30;40911;51.552;9.874;2023-04-29T11:28:17;13.18;80.17
13796;SHT30;40911;51.552;9.874;2023-04-29T11:30:39;13.20;79.92
13796;SHT30;40911;51.552;9.874;2023-04-29T11:33:02;13.20;80.40
13796;SHT30;40911;51.552;9.874;2023-04-29T11:35:23;13.18;80.22
13796;SHT30;40911;51.552;9.874;2023-04-29T11:37:45;13.26;80.29
13796;SHT30;40911;51.552;9.874;2023-04-29T11:40:10;13.11;80.02
13796;SHT30;40911;51.552;9.874;2023-04-29T11:42:40;13.41;80.51
13796;SHT30;40911;51.552;9.874;2023-04-29T11:45:03;13.48;80.32
13796;SHT30;40911;51.552;9.874;2023-04-29T11:47:26;13.75;79.81
13796;SHT30;40911;51.552;9.874;2023-04-29T11:49:49;13.61;79.25
13796;SHT30;40911;51.552;9.874;2023-04-29T11:52:11;13.48;79.34
13796;SHT30;40911;51.552;9.874;2023-04-29T11:54:33;13.34;79.16
13796;SHT30;40911;51.552;9.874;2023-04-29T11:56:56;13.19;79.21
13796;SHT30;40911;51.552;9.874;2023-04-29T11:59:19;13.24;79.80
13796;SHT30;40911;51.552;9.874;2023-04-29T12:01:41;12.88;79.58
13796;SHT30;40911;51.552;9.874;2023-04-29T12:04:04;13.05;80.13
13796;SHT30;40911;51.552;9.874;2023-04-29T12:06:27;13.12;80.15
13796;SHT30;40911;51.552;9.874;2023-04-29T12:08:49;13.11;79.79
13796;SHT30;40911;51.552;9.874;2023-04-29T12:11:11;13.13;79.37
13796;SHT30;40911;51.552;9.874;2023-04-29T12:13:35;13.19;79.26
13796;SHT30;40911;51.552;9.874;2023-04-29T12:15:57;13.15;79.82
13796;SHT30;40911;51.552;9.874;2023-04-29T12:18:19;13.11;79.21
13796;SHT30;40911;51.552;9.874;2023-04-29T12:20:43;13.23;78.99
13796;SHT30;40911;51.552;9.874;2023-04-29T12:23:12;13.34;79.27
13796;SHT30;40911;51.552;9.874;2023-04-29T12:25:34;13.11;77.37
13796;SHT30;40911;51.552;9.874;2023-04-29T12:27:58;13.02;76.91
13796;SHT30;40911;51.552;9.874;2023-04-29T12:30:21;13.02;77.11
13796;SHT30;40911;51.552;9.874;2023-04-29T12:32:44;13.23;78.06
13796;SHT30;40911;51.552;9.874;2023-04-29T12:35:14;13.12;76.90
13796;SHT30;40911;51.552;9.874;2023-04-29T12:37:38;13.29;77.65
13796;SHT30;40911;51.552;9.874;2023-04-29T12:40:00;13.03;77.72
13796;SHT30;40911;51.552;9.874;2023-04-29T12:42:21;13.03;78.24
13796;SHT30;40911;51.552;9.874;2023-04-29T12:44:52;13.06;79.26
13796;SHT30;40911;51.552;9.874;2023-04-29T12:47:16;12.82;78.00
13796;SHT30;40911;51.552;9.874;2023-04-29T12:49:41;12.88;78.10
13796;SHT30;40911;51.552;9.874;2023-04-29T12:52:03;12.82;78.29
13796;SHT30;40911;51.552;9.874;2023-04-29T12:54:28;12.69;78.35
13796;SHT30;40911;51.552;9.874;2023-04-29T12:56:51;12.72;78.80
13796;SHT30;40911;51.552;9.874;2023-04-29T12:59:13;12.65;78.39
13796;SHT30;40911;51.552;9.874;2023-04-29T13:01:37;12.48;77.72
13796;SHT30;40911;51.552;9.874;2023-04-29T13:04:06;12.55;78.32
13796;SHT30;40911;51.552;9.874;2023-04-29T13:06:31;12.51;78.59
13796;SHT30;40911;51.552;9.874;2023-04-29T13:08:52;12.58;78.62
13796;SHT30;40911;51.552;9.874;2023-04-29T13:11:14;12.47;78.26
13796;SHT30;40911;51.552;9.874;2023-04-29T13:13:44;12.60;78.04
13796;SHT30;40911;51.552;9.874;2023-04-29T13:16:06;12.57;78.29
13796;SHT30;40911;51.552;9.874;2023-04-29T13:18:28;12.60;78.56
13796;SHT30;40911;51.552;9.874;2023-04-29T13:20:51;12.60;77.79
13796;SHT30;40911;51.552;9.874;2023-04-29T13:23:13;12.65;77.67
13796;SHT30;40911;51.552;9.874;2023-04-29T13:25:37;12.79;78.69
13796;SHT30;40911;51.552;9.874;2023-04-29T13:27:58;12.71;77.61
13796;SHT30;40911;51.552;9.874;2023-04-29T13:30:20;12.64;76.86
13796;SHT30;40911;51.552;9.874;2023-04-29T13:32:41;12.78;77.39
13796;SHT30;40911;51.552;9.874;2023-04-29T13:35:04;12.95;77.82
13796;SHT30;40911;51.552;9.874;2023-04-29T13:37:27;13.01;77.93
13796;SHT30;40911;51.552;9.874;2023-04-29T13:39:49;13.01;77.53
13796;SHT30;40911;51.552;9.874;2023-04-29T13:42:11;13.08;77.12
13796;SHT30;40911;51.552;9.874;2023-04-29T13:44:32;13.22;77.75
13796;SHT30;40911;51.552;9.874;2023-04-29T13:46:54;13.09;77.65
13796;SHT30;40911;51.552;9.874;2023-04-29T13:49:16;13.06;77.43
13796;SHT30;40911;51.552;9.874;2023-04-29T13:51:38;13.19;77.73
13796;SHT30;40911;51.552;9.874;2023-04-29T13:54:02;13.24;77.53
13796;SHT30;40911;51.552;9.874;2023-04-29T13:56:24;13.32;77.28
13796;SHT30;40911;51.552;9.874;2023-04-29T13:58:46;13.20;76.58
13796;SHT30;40911;51.552;9.874;2023-04-29T14:01:09;13.15;76.92
13796;SHT30;40911;51.552;9.874;2023-04-29T14:03:31;13.34;77.25
13796;SHT30;40911;51.552;9.874;2023-04-29T14:05:53;13.13;77.19
13796;SHT30;40911;51.552;9.874;2023-04-29T14:08:15;13.03;77.45
13796;SHT30;40911;51.552;9.874;2023-04-29T14:13:36;13.02;77.27
13796;SHT30;40911;51.552;9.874;2023-04-29T14:15:58;13.19;76.87
13796;SHT30;40911;51.552;9.874;2023-04-29T14:18:22;13.26;76.96
13796;SHT30;40911;51.552;9.874;2023-04-29T14:20:44;13.43;77.45
13796;SHT30;40911;51.552;9.874;2023-04-29T14:23:05;13.55;77.22
13796;SHT30;40911;51.552;9.874;2023-04-29T14:25:27;13.47;75.86
13796;SHT30;40911;51.552;9.874;2023-04-29T14:27:49;13.57;76.28
13796;SHT30;40911;51.552;9.874;2023-04-29T14:30:12;13.70;76.75
13796;SHT30;40911;51.552;9.874;2023-04-29T14:32:34;13.77;76.91
13796;SHT30;40911;51.552;9.874;2023-04-29T14:34:56;13.74;76.80
13796;SHT30;40911;51.552;9.874;2023-04-29T14:37:17;13.62;76.84
13796;SHT30;40911;51.552;9.874;2023-04-29T14:39:39;13.65;76.92
13796;SHT30;40911;51.552;9.874;2023-04-29T14:42:00;13.54;76.80
13796;SHT30;40911;51.552;9.874;2023-04-29T14:44:22;13.36;76.66
13796;SHT30;40911;51.552;9.874;2023-04-29T14:46:46;13.37;77.34
13796;SHT30;40911;51.552;9.874;2023-04-29T14:49:07;13.40;76.75
13796;SHT30;40911;51.552;9.874;2023-04-29T14:51:29;13.37;77.73
13796;SHT30;40911;51.552;9.874;2023-04-29T14:53:51;13.47;77.84
13796;SHT30;40911;51.552;9.874;2023-04-29T14:56:15;13.34;78.06
13796;SHT30;40911;51.552;9.874;2023-04-29T14:58:36;13.26;78.26
13796;SHT30;40911;51.552;9.874;2023-04-29T15:00:58;13.23;78.33
13796;SHT30;40911;51.552;9.874;2023-04-29T15:03:21;13.46;78.76
13796;SHT30;40911;51.552;9.874;2023-04-29T15:05:43;13.54;78.77
13796;SHT30;40911;51.552;9.874;2023-04-29T15:08:05;13.40;77.73
13796;SHT30;40911;51.552;9.874;2023-04-29T15:10:27;13.41;77.79